createdAt,value
2022-11-23T00:00:06.236Z,6.43
2022-11-23T00:00:16.469Z,6.44
2022-11-23T00:00:26.723Z,6.43
2022-11-23T00:00:36.966Z,6.43
2022-11-23T00:00:47.196Z,6.43
2022-11-23T00:00:57.447Z,6.43
2022-11-23T00:01:07.684Z,6.44
2022-11-23T00:01:17.923Z,6.43
2022-11-23T00:01:28.163Z,6.43
2022-11-23T00:01:38.383Z,6.44
2022-11-23T00:01:48.670Z,6.43
2022-11-23T00:01:58.913Z,6.43
2022-11-23T00:02:09.176Z,6.41
2022-11-23T00:02:19.492Z,6.44
2022-11-23T00:02:29.783Z,6.44
2022-11-23T00:02:40.103Z,6.43
2022-11-23T00:02:50.343Z,6.43
2022-11-23T00:03:00.608Z,6.44
2022-11-23T00:03:10.844Z,6.43
2022-11-23T00:03:21.075Z,6.43
2022-11-23T00:03:31.337Z,6.41
2022-11-23T00:03:41.665Z,6.41
2022-11-23T00:03:51.844Z,6.43
2022-11-23T00:04:02.096Z,6.43
2022-11-23T00:04:12.323Z,6.41
2022-11-23T00:04:22.558Z,6.39
2022-11-23T00:04:32.800Z,6.41
2022-11-23T00:04:43.030Z,6.41
2022-11-23T00:04:53.266Z,6.43
2022-11-23T00:05:03.504Z,6.41
2022-11-23T00:05:13.745Z,6.43
2022-11-23T00:05:23.979Z,6.41
2022-11-23T00:05:34.233Z,6.43
2022-11-23T00:05:44.476Z,6.41
2022-11-23T00:05:54.717Z,6.41
2022-11-23T00:06:04.975Z,6.41
2022-11-23T00:06:15.193Z,6.41
2022-11-23T00:06:25.421Z,6.41
2022-11-23T00:06:35.670Z,6.41
2022-11-23T00:06:45.897Z,6.41
2022-11-23T00:06:56.162Z,6.41
2022-11-23T00:07:06.440Z,6.41
2022-11-23T00:07:16.689Z,6.41
2022-11-23T00:07:26.983Z,6.43
2022-11-23T00:07:37.307Z,6.41
2022-11-23T00:07:47.559Z,6.43
2022-11-23T00:07:57.813Z,6.43
2022-11-23T00:08:08.046Z,6.39
2022-11-23T00:08:18.283Z,6.41
2022-11-23T00:08:28.518Z,6.39
2022-11-23T00:08:38.761Z,6.43
2022-11-23T00:08:49.015Z,6.41
2022-11-23T00:08:59.234Z,6.39
2022-11-23T00:09:09.477Z,6.41
2022-11-23T00:09:19.753Z,6.41
2022-11-23T00:09:30.395Z,6.39
2022-11-23T00:09:40.257Z,6.39
2022-11-23T00:09:50.510Z,6.39
2022-11-23T00:10:00.727Z,6.39
2022-11-23T00:10:10.992Z,6.39
2022-11-23T00:10:21.210Z,6.39
2022-11-23T00:10:31.458Z,6.39
2022-11-23T00:10:41.701Z,6.39
2022-11-23T00:10:51.936Z,6.41
2022-11-23T00:11:02.192Z,6.41
2022-11-23T00:11:12.417Z,6.38
2022-11-23T00:11:22.671Z,6.41
2022-11-23T00:11:32.943Z,6.39
2022-11-23T00:11:43.224Z,6.39
2022-11-23T00:11:53.425Z,6.39
2022-11-23T00:12:03.660Z,6.39
2022-11-23T00:12:13.883Z,6.39
2022-11-23T00:12:24.214Z,6.38
2022-11-23T00:12:34.411Z,6.39
2022-11-23T00:12:44.632Z,6.39
2022-11-23T00:12:54.872Z,6.41
2022-11-23T00:13:05.107Z,6.39
2022-11-23T00:13:15.352Z,6.39
2022-11-23T00:13:25.590Z,6.38
2022-11-23T00:13:35.867Z,6.38
2022-11-23T00:13:46.093Z,6.39
2022-11-23T00:13:56.316Z,6.39
2022-11-23T00:14:06.547Z,6.39
2022-11-23T00:14:16.790Z,6.38
2022-11-23T00:14:27.023Z,6.38
2022-11-23T00:14:37.266Z,6.38
2022-11-23T00:14:47.499Z,6.38
2022-11-23T00:14:57.760Z,6.39
2022-11-23T00:15:07.993Z,6.39
2022-11-23T00:15:18.232Z,6.39
2022-11-23T00:15:28.504Z,6.39
2022-11-23T00:15:38.723Z,6.38
2022-11-23T00:15:48.972Z,6.39
2022-11-23T00:15:59.198Z,6.39
2022-11-23T00:16:09.446Z,6.39
2022-11-23T00:16:19.678Z,6.39
2022-11-23T00:16:29.928Z,6.39
2022-11-23T00:16:40.163Z,6.39
2022-11-23T00:16:50.411Z,6.39
2022-11-23T00:17:00.635Z,6.38
2022-11-23T00:17:10.894Z,6.36
2022-11-23T00:17:21.107Z,6.39
2022-11-23T00:17:31.350Z,6.41
2022-11-23T00:17:41.593Z,6.39
2022-11-23T00:17:51.825Z,6.38
2022-11-23T00:18:02.083Z,6.38
2022-11-23T00:18:12.311Z,6.39
2022-11-23T00:18:22.565Z,6.41
2022-11-23T00:18:32.777Z,6.39
2022-11-23T00:18:43.033Z,6.39
2022-11-23T00:18:53.272Z,6.39
2022-11-23T00:19:03.489Z,6.39
2022-11-23T00:19:13.724Z,6.38
2022-11-23T00:19:23.964Z,6.39
2022-11-23T00:19:34.439Z,6.39
2022-11-23T00:19:44.551Z,6.39
2022-11-23T00:19:54.793Z,6.39
2022-11-23T00:20:05.023Z,6.38
2022-11-23T00:20:15.263Z,6.41
2022-11-23T00:20:25.504Z,6.38
2022-11-23T00:20:35.763Z,6.41
2022-11-23T00:20:46.004Z,6.41
2022-11-23T00:20:56.232Z,6.39
2022-11-23T00:21:06.471Z,6.39
2022-11-23T00:21:16.720Z,6.39
2022-11-23T00:21:26.959Z,6.39
2022-11-23T00:21:37.203Z,6.41
2022-11-23T00:21:47.450Z,6.39
2022-11-23T00:21:57.684Z,6.41
2022-11-23T00:22:07.920Z,6.38
2022-11-23T00:22:18.167Z,6.39
2022-11-23T00:22:28.414Z,6.39
2022-11-23T00:22:38.648Z,6.39
2022-11-23T00:22:48.897Z,6.39
2022-11-23T00:22:59.150Z,6.39
2022-11-23T00:23:09.362Z,6.41
2022-11-23T00:23:19.608Z,6.39
2022-11-23T00:23:29.846Z,6.41
2022-11-23T00:23:40.096Z,6.38
2022-11-23T00:23:50.356Z,6.38
2022-11-23T00:24:00.589Z,6.39
2022-11-23T00:24:10.832Z,6.41
2022-11-23T00:24:21.087Z,6.39
2022-11-23T00:24:31.331Z,6.39
2022-11-23T00:24:41.583Z,6.41
2022-11-23T00:24:51.836Z,6.38
2022-11-23T00:25:02.157Z,6.39
2022-11-23T00:25:12.463Z,6.39
2022-11-23T00:25:22.696Z,6.39
2022-11-23T00:25:33.096Z,6.41
2022-11-23T00:25:43.280Z,6.38
2022-11-23T00:25:53.520Z,6.39
2022-11-23T00:26:03.760Z,6.38
2022-11-23T00:26:14.005Z,6.39
2022-11-23T00:26:24.235Z,6.39
2022-11-23T00:26:34.469Z,6.38
2022-11-23T00:26:44.710Z,6.41
2022-11-23T00:26:54.965Z,6.39
2022-11-23T00:27:05.187Z,6.39
2022-11-23T00:27:15.423Z,6.38
2022-11-23T00:27:25.654Z,6.39
2022-11-23T00:27:35.896Z,6.39
2022-11-23T00:27:46.141Z,6.39
2022-11-23T00:27:56.374Z,6.38
2022-11-23T00:28:06.608Z,6.39
2022-11-23T00:28:16.854Z,6.39
2022-11-23T00:28:27.088Z,6.39
2022-11-23T00:28:37.321Z,6.39
2022-11-23T00:28:47.560Z,6.39
2022-11-23T00:28:57.794Z,6.39
2022-11-23T00:29:08.026Z,6.39
2022-11-23T00:29:18.265Z,6.41
2022-11-23T00:29:28.617Z,6.39
2022-11-23T00:29:38.874Z,6.38
2022-11-23T00:29:49.135Z,6.39
2022-11-23T00:29:59.351Z,6.38
2022-11-23T00:30:09.583Z,6.39
2022-11-23T00:30:19.826Z,6.38
2022-11-23T00:30:30.098Z,6.39
2022-11-23T00:30:40.312Z,6.39
2022-11-23T00:30:50.560Z,6.39
2022-11-23T00:31:00.800Z,6.39
2022-11-23T00:31:11.043Z,6.39
2022-11-23T00:31:21.274Z,6.38
2022-11-23T00:31:31.492Z,6.39
2022-11-23T00:31:41.732Z,6.38
2022-11-23T00:31:51.972Z,6.38
2022-11-23T00:32:02.211Z,6.39
2022-11-23T00:32:12.447Z,6.39
2022-11-23T00:32:22.682Z,6.39
2022-11-23T00:32:32.933Z,6.38
2022-11-23T00:32:43.186Z,6.38
2022-11-23T00:32:53.412Z,6.39
2022-11-23T00:33:03.668Z,6.38
2022-11-23T00:33:13.891Z,6.38
2022-11-23T00:33:24.121Z,6.38
2022-11-23T00:33:34.368Z,6.38
2022-11-23T00:33:44.597Z,6.38
2022-11-23T00:33:54.858Z,6.39
2022-11-23T00:34:05.087Z,6.38
2022-11-23T00:34:15.313Z,6.39
2022-11-23T00:34:25.562Z,6.38
2022-11-23T00:34:35.850Z,6.38
2022-11-23T00:34:46.047Z,6.39
2022-11-23T00:34:56.303Z,6.39
2022-11-23T00:35:06.529Z,6.39
2022-11-23T00:35:16.771Z,6.38
2022-11-23T00:35:27.008Z,6.38
2022-11-23T00:35:37.264Z,6.38
2022-11-23T00:35:47.497Z,6.39
2022-11-23T00:35:57.742Z,6.38
2022-11-23T00:36:08.001Z,6.38
2022-11-23T00:36:18.233Z,6.39
2022-11-23T00:36:28.476Z,6.38
2022-11-23T00:36:38.731Z,6.39
2022-11-23T00:36:48.955Z,6.39
2022-11-23T00:36:59.210Z,6.39
2022-11-23T00:37:09.430Z,6.38
2022-11-23T00:37:19.678Z,6.36
2022-11-23T00:37:30.040Z,6.39
2022-11-23T00:37:40.231Z,6.38
2022-11-23T00:37:50.493Z,6.39
2022-11-23T00:38:00.711Z,6.38
2022-11-23T00:38:10.938Z,6.38
2022-11-23T00:38:21.186Z,6.36
2022-11-23T00:38:31.438Z,6.38
2022-11-23T00:38:41.667Z,6.38
2022-11-23T00:38:51.908Z,6.39
2022-11-23T00:39:02.153Z,6.38
2022-11-23T00:39:12.377Z,6.36
2022-11-23T00:39:22.624Z,6.39
2022-11-23T00:39:33.079Z,6.38
2022-11-23T00:39:43.243Z,6.36
2022-11-23T00:39:53.506Z,6.38
2022-11-23T00:40:03.733Z,6.38
2022-11-23T00:40:13.952Z,6.38
2022-11-23T00:40:24.198Z,6.38
2022-11-23T00:40:34.464Z,6.38
2022-11-23T00:40:44.717Z,6.36
2022-11-23T00:40:54.974Z,6.36
2022-11-23T00:41:05.194Z,6.38
2022-11-23T00:41:15.431Z,6.38
2022-11-23T00:41:25.658Z,6.36
2022-11-23T00:41:35.902Z,6.38
2022-11-23T00:41:46.133Z,6.36
2022-11-23T00:41:56.377Z,6.38
2022-11-23T00:42:06.613Z,6.36
2022-11-23T00:42:16.867Z,6.38
2022-11-23T00:42:27.084Z,6.38
2022-11-23T00:42:38.391Z,6.36
2022-11-23T00:42:47.601Z,6.39
2022-11-23T00:42:57.830Z,6.38
2022-11-23T00:43:08.073Z,6.38
2022-11-23T00:43:18.327Z,6.38
2022-11-23T00:43:28.548Z,6.38
2022-11-23T00:43:38.815Z,6.38
2022-11-23T00:43:49.028Z,6.38
2022-11-23T00:43:59.272Z,6.36
2022-11-23T00:44:09.505Z,6.38
2022-11-23T00:44:19.742Z,6.35
2022-11-23T00:44:29.977Z,6.36
2022-11-23T00:44:40.215Z,6.38
2022-11-23T00:44:50.471Z,6.38
2022-11-23T00:45:00.697Z,6.38
2022-11-23T00:45:10.924Z,6.39
2022-11-23T00:45:21.169Z,6.36
2022-11-23T00:45:31.408Z,6.39
2022-11-23T00:45:41.650Z,6.38
2022-11-23T00:45:51.895Z,6.36
2022-11-23T00:46:02.175Z,6.36
2022-11-23T00:46:12.381Z,6.36
2022-11-23T00:46:22.620Z,6.38
2022-11-23T00:46:32.882Z,6.36
2022-11-23T00:46:43.099Z,6.38
2022-11-23T00:46:53.335Z,6.36
2022-11-23T00:47:03.579Z,6.38
2022-11-23T00:47:13.809Z,6.38
2022-11-23T00:47:24.066Z,6.36
2022-11-23T00:47:34.279Z,6.38
2022-11-23T00:47:44.572Z,6.38
2022-11-23T00:47:54.856Z,6.36
2022-11-23T00:48:05.054Z,6.36
2022-11-23T00:48:15.281Z,6.36
2022-11-23T00:48:25.514Z,6.36
2022-11-23T00:48:35.750Z,6.36
2022-11-23T00:48:46.009Z,6.38
2022-11-23T00:48:56.333Z,6.36
2022-11-23T00:49:06.576Z,6.38
2022-11-23T00:49:16.828Z,6.36
2022-11-23T00:49:27.047Z,6.38
2022-11-23T00:49:37.287Z,6.35
2022-11-23T00:49:47.537Z,6.36
2022-11-23T00:49:57.770Z,6.38
2022-11-23T00:50:08.006Z,6.38
2022-11-23T00:50:18.241Z,6.35
2022-11-23T00:50:28.480Z,6.36
2022-11-23T00:50:38.736Z,6.38
2022-11-23T00:50:48.973Z,6.36
2022-11-23T00:50:59.209Z,6.35
2022-11-23T00:51:09.456Z,6.36
2022-11-23T00:51:19.683Z,6.35
2022-11-23T00:51:29.932Z,6.36
2022-11-23T00:51:40.153Z,6.36
2022-11-23T00:51:50.394Z,6.35
2022-11-23T00:52:00.635Z,6.36
2022-11-23T00:52:10.882Z,6.36
2022-11-23T00:52:21.109Z,6.35
2022-11-23T00:52:31.370Z,6.35
2022-11-23T00:52:41.593Z,6.35
2022-11-23T00:52:51.856Z,6.36
2022-11-23T00:53:02.060Z,6.36
2022-11-23T00:53:12.321Z,6.36
2022-11-23T00:53:22.539Z,6.36
2022-11-23T00:53:32.790Z,6.36
2022-11-23T00:53:43.020Z,6.36
2022-11-23T00:53:53.286Z,6.35
2022-11-23T00:54:03.496Z,6.38
2022-11-23T00:54:13.752Z,6.36
2022-11-23T00:54:23.995Z,6.35
2022-11-23T00:54:34.221Z,6.36
2022-11-23T00:54:44.462Z,6.36
2022-11-23T00:54:54.719Z,6.36
2022-11-23T00:55:04.936Z,6.36
2022-11-23T00:55:15.174Z,6.36
2022-11-23T00:55:25.415Z,6.35
2022-11-23T00:55:35.661Z,6.36
2022-11-23T00:55:45.907Z,6.36
2022-11-23T00:55:56.145Z,6.36
2022-11-23T00:56:06.383Z,6.35
2022-11-23T00:56:16.639Z,6.36
2022-11-23T00:56:26.853Z,6.36
2022-11-23T00:56:37.096Z,6.35
2022-11-23T00:56:47.327Z,6.36
2022-11-23T00:56:57.564Z,6.36
2022-11-23T00:57:07.823Z,6.38
2022-11-23T00:57:18.044Z,6.35
2022-11-23T00:57:28.295Z,6.35
2022-11-23T00:57:38.530Z,6.36
2022-11-23T00:57:48.764Z,6.36
2022-11-23T00:57:59.012Z,6.35
2022-11-23T00:58:09.227Z,6.36
2022-11-23T00:58:19.486Z,6.36
2022-11-23T00:58:29.699Z,6.35
2022-11-23T00:58:40.004Z,6.36
2022-11-23T00:58:50.205Z,6.35
2022-11-23T00:59:00.448Z,6.35
2022-11-23T00:59:10.712Z,6.35
2022-11-23T00:59:20.962Z,6.35
2022-11-23T00:59:31.623Z,6.36
2022-11-23T00:59:41.410Z,6.35
2022-11-23T00:59:51.637Z,6.35
2022-11-23T01:00:01.880Z,6.34
2022-11-23T01:00:12.108Z,6.35
2022-11-23T01:00:22.340Z,6.35
2022-11-23T01:00:32.588Z,6.36
2022-11-23T01:00:42.846Z,6.36
2022-11-23T01:00:53.105Z,6.35
2022-11-23T01:01:03.471Z,6.35
2022-11-23T01:01:13.695Z,6.36
2022-11-23T01:01:23.984Z,6.35
2022-11-23T01:01:34.413Z,6.36
2022-11-23T01:01:44.522Z,6.34
2022-11-23T01:01:54.861Z,6.34
2022-11-23T01:02:05.121Z,6.34
2022-11-23T01:02:15.332Z,6.34
2022-11-23T01:02:25.573Z,6.34
2022-11-23T01:02:35.869Z,6.34
2022-11-23T01:02:46.104Z,6.35
2022-11-23T01:02:56.339Z,6.35
2022-11-23T01:03:06.589Z,6.35
2022-11-23T01:03:16.839Z,6.35
2022-11-23T01:03:27.055Z,6.34
2022-11-23T01:03:37.291Z,6.35
2022-11-23T01:03:47.532Z,6.35
2022-11-23T01:03:57.766Z,6.35
2022-11-23T01:04:08.043Z,6.35
2022-11-23T01:04:18.276Z,6.35
2022-11-23T01:04:28.536Z,6.35
2022-11-23T01:04:38.744Z,6.32
2022-11-23T01:04:48.979Z,6.34
2022-11-23T01:04:59.238Z,6.34
2022-11-23T01:05:09.468Z,6.34
2022-11-23T01:05:19.720Z,6.34
2022-11-23T01:05:29.932Z,6.34
2022-11-23T01:05:40.166Z,6.34
2022-11-23T01:05:50.420Z,6.35
2022-11-23T01:06:00.707Z,6.34
2022-11-23T01:06:10.915Z,6.32
2022-11-23T01:06:21.150Z,6.35
2022-11-23T01:06:31.390Z,6.34
2022-11-23T01:06:41.622Z,6.35
2022-11-23T01:06:51.859Z,6.34
2022-11-23T01:07:02.109Z,6.34
2022-11-23T01:07:12.361Z,6.34
2022-11-23T01:07:22.632Z,6.34
2022-11-23T01:07:32.938Z,6.34
2022-11-23T01:07:43.267Z,6.32
2022-11-23T01:07:53.492Z,6.34
2022-11-23T01:08:03.731Z,6.34
2022-11-23T01:08:13.983Z,6.32
2022-11-23T01:08:24.208Z,6.34
2022-11-23T01:08:34.461Z,6.34
2022-11-23T01:08:44.699Z,6.34
2022-11-23T01:08:54.931Z,6.34
2022-11-23T01:09:05.172Z,6.34
2022-11-23T01:09:15.411Z,6.34
2022-11-23T01:09:25.644Z,6.34
2022-11-23T01:09:35.915Z,6.32
2022-11-23T01:09:46.178Z,6.34
2022-11-23T01:09:56.402Z,6.32
2022-11-23T01:10:06.646Z,6.31
2022-11-23T01:10:16.882Z,6.32
2022-11-23T01:10:27.141Z,6.32
2022-11-23T01:10:37.358Z,6.32
2022-11-23T01:10:47.604Z,6.34
2022-11-23T01:10:57.849Z,6.32
2022-11-23T01:11:08.083Z,6.34
2022-11-23T01:11:18.316Z,6.34
2022-11-23T01:11:28.553Z,6.34
2022-11-23T01:11:38.791Z,6.31
2022-11-23T01:11:49.103Z,6.34
2022-11-23T01:11:59.294Z,6.34
2022-11-23T01:12:09.526Z,6.32
2022-11-23T01:12:19.765Z,6.32
2022-11-23T01:12:30.007Z,6.32
2022-11-23T01:12:40.243Z,6.31
2022-11-23T01:12:50.484Z,6.32
2022-11-23T01:13:00.707Z,6.32
2022-11-23T01:13:10.955Z,6.34
2022-11-23T01:13:21.183Z,6.31
2022-11-23T01:13:31.415Z,6.32
2022-11-23T01:13:41.658Z,6.34
2022-11-23T01:13:51.916Z,6.32
2022-11-23T01:14:02.166Z,6.31
2022-11-23T01:14:12.389Z,6.31
2022-11-23T01:14:22.619Z,6.31
2022-11-23T01:14:32.861Z,6.34
2022-11-23T01:14:43.098Z,6.31
2022-11-23T01:14:53.334Z,6.32
2022-11-23T01:15:03.581Z,6.32
2022-11-23T01:15:13.830Z,6.32
2022-11-23T01:15:24.048Z,6.31
2022-11-23T01:15:34.311Z,6.31
2022-11-23T01:15:44.532Z,6.31
2022-11-23T01:15:54.766Z,6.31
2022-11-23T01:16:05.008Z,6.32
2022-11-23T01:16:19.482Z,6.31
2022-11-23T01:16:26.661Z,6.32
2022-11-23T01:16:36.076Z,6.31
2022-11-23T01:16:46.310Z,6.32
2022-11-23T01:16:56.547Z,6.32
2022-11-23T01:17:06.785Z,6.32
2022-11-23T01:17:17.029Z,6.34
2022-11-23T01:17:27.261Z,6.34
2022-11-23T01:17:37.497Z,6.34
2022-11-23T01:17:47.868Z,6.32
2022-11-23T01:17:58.113Z,6.31
2022-11-23T01:18:08.349Z,6.31
2022-11-23T01:18:18.574Z,6.34
2022-11-23T01:18:28.814Z,6.32
2022-11-23T01:18:39.086Z,6.32
2022-11-23T01:18:49.308Z,6.34
2022-11-23T01:18:59.542Z,6.32
2022-11-23T01:19:09.783Z,6.34
2022-11-23T01:19:20.024Z,6.31
2022-11-23T01:19:30.599Z,6.32
2022-11-23T01:19:40.572Z,6.31
2022-11-23T01:19:50.805Z,6.31
2022-11-23T01:20:01.041Z,6.31
2022-11-23T01:20:11.277Z,6.31
2022-11-23T01:20:21.518Z,6.32
2022-11-23T01:20:31.751Z,6.32
2022-11-23T01:20:41.991Z,6.31
2022-11-23T01:20:52.245Z,6.29
2022-11-23T01:21:02.482Z,6.32
2022-11-23T01:21:12.720Z,6.32
2022-11-23T01:21:22.971Z,6.31
2022-11-23T01:21:33.187Z,6.32
2022-11-23T01:21:43.437Z,6.34
2022-11-23T01:21:53.679Z,6.32
2022-11-23T01:22:03.906Z,6.34
2022-11-23T01:22:14.145Z,6.32
2022-11-23T01:22:24.381Z,6.31
2022-11-23T01:22:34.643Z,6.34
2022-11-23T01:22:44.888Z,6.32
2022-11-23T01:22:55.133Z,6.32
2022-11-23T01:23:05.366Z,6.32
2022-11-23T01:23:15.598Z,6.34
2022-11-23T01:23:25.839Z,6.32
2022-11-23T01:23:36.076Z,6.31
2022-11-23T01:23:46.328Z,6.32
2022-11-23T01:23:56.539Z,6.32
2022-11-23T01:24:06.774Z,6.32
2022-11-23T01:24:17.016Z,6.34
2022-11-23T01:24:27.247Z,6.34
2022-11-23T01:24:37.486Z,6.32
2022-11-23T01:24:47.723Z,6.34
2022-11-23T01:24:57.959Z,6.34
2022-11-23T01:25:08.204Z,6.34
2022-11-23T01:25:18.448Z,6.32
2022-11-23T01:25:28.689Z,6.32
2022-11-23T01:25:38.912Z,6.34
2022-11-23T01:25:53.122Z,6.34
2022-11-23T01:26:00.494Z,6.32
2022-11-23T01:26:09.868Z,6.35
2022-11-23T01:26:20.123Z,6.34
2022-11-23T01:26:30.361Z,6.32
2022-11-23T01:26:40.589Z,6.34
2022-11-23T01:26:50.828Z,6.32
2022-11-23T01:27:01.074Z,6.34
2022-11-23T01:27:11.308Z,6.34
2022-11-23T01:27:21.538Z,6.34
2022-11-23T01:27:31.796Z,6.34
2022-11-23T01:27:42.029Z,6.35
2022-11-23T01:27:52.350Z,6.32
2022-11-23T01:28:02.549Z,6.32
2022-11-23T01:28:12.783Z,6.32
2022-11-23T01:28:23.022Z,6.34
2022-11-23T01:28:33.265Z,6.34
2022-11-23T01:28:43.510Z,6.34
2022-11-23T01:28:53.745Z,6.34
2022-11-23T01:29:03.984Z,6.34
2022-11-23T01:29:14.228Z,6.34
2022-11-23T01:29:24.459Z,6.32
2022-11-23T01:29:34.924Z,6.32
2022-11-23T01:29:45.058Z,6.34
2022-11-23T01:29:55.318Z,6.34
2022-11-23T01:30:05.532Z,6.34
2022-11-23T01:30:15.779Z,6.35
2022-11-23T01:30:26.020Z,6.36
2022-11-23T01:30:36.247Z,6.34
2022-11-23T01:30:46.511Z,6.36
2022-11-23T01:30:56.749Z,6.34
2022-11-23T01:31:06.980Z,6.35
2022-11-23T01:31:17.246Z,6.35
2022-11-23T01:31:27.474Z,6.36
2022-11-23T01:31:40.591Z,6.34
2022-11-23T01:31:49.135Z,6.34
2022-11-23T01:31:58.573Z,6.35
2022-11-23T01:32:08.788Z,6.36
2022-11-23T01:32:19.010Z,6.35
2022-11-23T01:32:29.249Z,6.35
2022-11-23T01:32:39.494Z,6.35
2022-11-23T01:32:49.774Z,6.35
2022-11-23T01:33:00.007Z,6.35
2022-11-23T01:33:10.241Z,6.35
2022-11-23T01:33:20.478Z,6.35
2022-11-23T01:33:30.718Z,6.35
2022-11-23T01:33:40.953Z,6.34
2022-11-23T01:33:51.191Z,6.36
2022-11-23T01:34:01.447Z,6.36
2022-11-23T01:34:11.781Z,6.34
2022-11-23T01:34:21.990Z,6.35
2022-11-23T01:34:32.234Z,6.36
2022-11-23T01:34:42.489Z,6.34
2022-11-23T01:34:52.717Z,6.35
2022-11-23T01:35:02.950Z,6.35
2022-11-23T01:35:13.183Z,6.35
2022-11-23T01:35:23.422Z,6.36
2022-11-23T01:35:33.654Z,6.36
2022-11-23T01:35:43.897Z,6.34
2022-11-23T01:35:54.138Z,6.35
2022-11-23T01:36:04.382Z,6.36
2022-11-23T01:36:14.610Z,6.35
2022-11-23T01:36:24.849Z,6.36
2022-11-23T01:36:35.097Z,6.35
2022-11-23T01:36:45.351Z,6.38
2022-11-23T01:36:55.562Z,6.36
2022-11-23T01:37:05.810Z,6.35
2022-11-23T01:37:16.036Z,6.36
2022-11-23T01:37:26.272Z,6.35
2022-11-23T01:37:36.509Z,6.36
2022-11-23T01:37:46.744Z,6.34
2022-11-23T01:37:56.983Z,6.35
2022-11-23T01:38:07.225Z,6.36
2022-11-23T01:38:18.556Z,6.35
2022-11-23T01:38:27.778Z,6.34
2022-11-23T01:38:38.007Z,6.35
2022-11-23T01:38:48.239Z,6.35
2022-11-23T01:38:58.491Z,6.35
2022-11-23T01:39:08.714Z,6.35
2022-11-23T01:39:18.997Z,6.35
2022-11-23T01:39:29.556Z,6.36
2022-11-23T01:39:39.615Z,6.35
2022-11-23T01:39:49.854Z,6.34
2022-11-23T01:40:00.133Z,6.36
2022-11-23T01:40:10.343Z,6.36
2022-11-23T01:40:20.572Z,6.34
2022-11-23T01:40:30.814Z,6.34
2022-11-23T01:40:41.051Z,6.35
2022-11-23T01:40:51.303Z,6.36
2022-11-23T01:41:01.560Z,6.34
2022-11-23T01:41:11.776Z,6.35
2022-11-23T01:41:22.011Z,6.36
2022-11-23T01:41:32.249Z,6.35
2022-11-23T01:41:42.487Z,6.36
2022-11-23T01:41:52.725Z,6.35
2022-11-23T01:42:02.961Z,6.36
2022-11-23T01:42:17.756Z,6.35
2022-11-23T01:42:23.525Z,6.36
2022-11-23T01:42:33.748Z,6.36
2022-11-23T01:42:43.999Z,6.35
2022-11-23T01:42:54.219Z,6.36
2022-11-23T01:43:04.505Z,6.35
2022-11-23T01:43:14.732Z,6.35
2022-11-23T01:43:24.967Z,6.35
2022-11-23T01:43:35.207Z,6.36
2022-11-23T01:43:45.445Z,6.36
2022-11-23T01:43:55.687Z,6.35
2022-11-23T01:44:05.920Z,6.36
2022-11-23T01:44:16.171Z,6.35
2022-11-23T01:44:26.402Z,6.35
2022-11-23T01:44:36.631Z,6.35
2022-11-23T01:44:46.873Z,6.35
2022-11-23T01:44:57.134Z,6.35
2022-11-23T01:45:07.361Z,6.36
2022-11-23T01:45:17.602Z,6.35
2022-11-23T01:45:27.829Z,6.36
2022-11-23T01:45:38.066Z,6.36
2022-11-23T01:45:48.322Z,6.35
2022-11-23T01:45:58.565Z,6.35
2022-11-23T01:46:08.809Z,6.36
2022-11-23T01:46:19.041Z,6.35
2022-11-23T01:46:29.271Z,6.35
2022-11-23T01:46:39.510Z,6.35
2022-11-23T01:46:49.756Z,6.34
2022-11-23T01:46:59.993Z,6.36
2022-11-23T01:47:10.220Z,6.35
2022-11-23T01:47:20.454Z,6.35
2022-11-23T01:47:30.712Z,6.35
2022-11-23T01:47:40.926Z,6.36
2022-11-23T01:47:51.162Z,6.35
2022-11-23T01:48:01.421Z,6.35
2022-11-23T01:48:11.662Z,6.35
2022-11-23T01:48:21.898Z,6.35
2022-11-23T01:48:32.133Z,6.35
2022-11-23T01:48:42.379Z,6.35
2022-11-23T01:48:52.612Z,6.36
2022-11-23T01:49:02.858Z,6.34
2022-11-23T01:49:13.089Z,6.36
2022-11-23T01:49:23.339Z,6.36
2022-11-23T01:49:33.955Z,6.36
2022-11-23T01:49:43.901Z,6.36
2022-11-23T01:49:54.169Z,6.35
2022-11-23T01:50:04.386Z,6.35
2022-11-23T01:50:14.645Z,6.36
2022-11-23T01:50:24.877Z,6.35
2022-11-23T01:50:35.106Z,6.35
2022-11-23T01:50:45.344Z,6.36
2022-11-23T01:50:55.612Z,6.35
2022-11-23T01:51:05.845Z,6.34
2022-11-23T01:51:16.084Z,6.36
2022-11-23T01:51:26.330Z,6.36
2022-11-23T01:51:36.566Z,6.35
2022-11-23T01:51:46.805Z,6.36
2022-11-23T01:51:57.061Z,6.34
2022-11-23T01:52:07.297Z,6.36
2022-11-23T01:52:17.546Z,6.35
2022-11-23T01:52:27.769Z,6.36
2022-11-23T01:52:38.004Z,6.35
2022-11-23T01:52:48.266Z,6.35
2022-11-23T01:52:58.489Z,6.34
2022-11-23T01:53:08.725Z,6.36
2022-11-23T01:53:18.969Z,6.35
2022-11-23T01:53:29.203Z,6.35
2022-11-23T01:53:39.430Z,6.36
2022-11-23T01:53:49.684Z,6.35
2022-11-23T01:53:59.939Z,6.35
2022-11-23T01:54:10.171Z,6.35
2022-11-23T01:54:20.409Z,6.34
2022-11-23T01:54:30.647Z,6.34
2022-11-23T01:54:40.899Z,6.35
2022-11-23T01:54:51.130Z,6.35
2022-11-23T01:55:06.881Z,6.35
2022-11-23T01:55:12.779Z,6.34
2022-11-23T01:55:22.151Z,6.35
2022-11-23T01:55:32.384Z,6.34
2022-11-23T01:55:42.638Z,6.34
2022-11-23T01:55:52.906Z,6.34
2022-11-23T01:56:03.122Z,6.34
2022-11-23T01:56:13.362Z,6.32
2022-11-23T01:56:23.597Z,6.35
2022-11-23T01:56:33.855Z,6.35
2022-11-23T01:56:44.075Z,6.34
2022-11-23T01:56:54.333Z,6.34
2022-11-23T01:57:04.550Z,6.34
2022-11-23T01:57:14.804Z,6.35
2022-11-23T01:57:25.070Z,6.34
2022-11-23T01:57:35.289Z,6.35
2022-11-23T01:57:45.532Z,6.34
2022-11-23T01:57:55.762Z,6.34
2022-11-23T01:58:06.012Z,6.34
2022-11-23T01:58:16.284Z,6.34
2022-11-23T01:58:26.500Z,6.34
2022-11-23T01:58:36.738Z,6.34
2022-11-23T01:58:47.015Z,6.34
2022-11-23T01:58:57.241Z,6.34
2022-11-23T01:59:07.456Z,6.34
2022-11-23T01:59:17.689Z,6.32
2022-11-23T01:59:27.927Z,6.32
2022-11-23T01:59:38.164Z,6.34
2022-11-23T01:59:48.401Z,6.34
2022-11-23T01:59:58.637Z,6.32
2022-11-23T02:00:08.873Z,6.35
2022-11-23T02:00:19.123Z,6.34
2022-11-23T02:00:29.350Z,6.32
2022-11-23T02:00:39.585Z,6.34
2022-11-23T02:00:49.898Z,6.34
2022-11-23T02:01:00.233Z,6.34
2022-11-23T02:01:10.498Z,6.32
2022-11-23T02:01:20.777Z,6.34
2022-11-23T02:01:31.006Z,6.32
2022-11-23T02:01:41.237Z,6.32
2022-11-23T02:01:51.471Z,6.34
2022-11-23T02:02:01.755Z,6.32
2022-11-23T02:02:11.950Z,6.34
2022-11-23T02:02:22.213Z,6.32
2022-11-23T02:02:32.437Z,6.32
2022-11-23T02:02:42.671Z,6.32
2022-11-23T02:02:52.913Z,6.29
2022-11-23T02:03:03.149Z,6.32
2022-11-23T02:03:13.381Z,6.32
2022-11-23T02:03:23.655Z,6.32
2022-11-23T02:03:33.861Z,6.32
2022-11-23T02:03:44.101Z,6.32
2022-11-23T02:03:54.334Z,6.32
2022-11-23T02:04:04.572Z,6.32
2022-11-23T02:04:14.823Z,6.32
2022-11-23T02:04:25.060Z,6.32
2022-11-23T02:04:35.279Z,6.31
2022-11-23T02:04:45.536Z,6.31
2022-11-23T02:04:55.822Z,6.34
2022-11-23T02:05:06.047Z,6.29
2022-11-23T02:05:16.264Z,6.31
2022-11-23T02:05:26.502Z,6.32
2022-11-23T02:05:36.738Z,6.32
2022-11-23T02:05:46.975Z,6.32
2022-11-23T02:05:57.230Z,6.31
2022-11-23T02:06:07.486Z,6.31
2022-11-23T02:06:17.765Z,6.31
2022-11-23T02:06:28.007Z,6.32
2022-11-23T02:06:38.224Z,6.32
2022-11-23T02:06:48.461Z,6.31
2022-11-23T02:06:58.697Z,6.31
2022-11-23T02:07:09.003Z,6.31
2022-11-23T02:07:19.274Z,6.31
2022-11-23T02:07:29.536Z,6.31
2022-11-23T02:07:39.841Z,6.31
2022-11-23T02:07:50.151Z,6.32
2022-11-23T02:08:00.475Z,6.31
2022-11-23T02:08:10.690Z,6.32
2022-11-23T02:08:20.927Z,6.31
2022-11-23T02:08:31.169Z,6.31
2022-11-23T02:08:41.399Z,6.31
2022-11-23T02:08:51.649Z,6.29
2022-11-23T02:09:01.883Z,6.31
2022-11-23T02:09:12.113Z,6.29
2022-11-23T02:09:22.370Z,6.29
2022-11-23T02:09:33.079Z,6.32
2022-11-23T02:09:42.873Z,6.31
2022-11-23T02:09:53.116Z,6.31
2022-11-23T02:10:03.358Z,6.32
2022-11-23T02:10:13.609Z,6.29
2022-11-23T02:10:23.841Z,6.29
2022-11-23T02:10:34.071Z,6.31
2022-11-23T02:10:44.308Z,6.31
2022-11-23T02:10:54.559Z,6.29
2022-11-23T02:11:04.797Z,6.32
2022-11-23T02:11:15.041Z,6.29
2022-11-23T02:11:25.275Z,6.29
2022-11-23T02:11:35.536Z,6.31
2022-11-23T02:11:45.761Z,6.29
2022-11-23T02:11:55.991Z,6.32
2022-11-23T02:12:06.235Z,6.31
2022-11-23T02:12:16.471Z,6.31
2022-11-23T02:12:26.718Z,6.31
2022-11-23T02:12:36.956Z,6.31
2022-11-23T02:12:47.188Z,6.29
2022-11-23T02:12:57.429Z,6.29
2022-11-23T02:13:07.684Z,6.28
2022-11-23T02:13:17.901Z,6.29
2022-11-23T02:13:28.161Z,6.31
2022-11-23T02:13:38.381Z,6.29
2022-11-23T02:13:48.631Z,6.29
2022-11-23T02:13:58.850Z,6.29
2022-11-23T02:14:09.091Z,6.31
2022-11-23T02:14:23.409Z,6.31
2022-11-23T02:14:29.608Z,6.29
2022-11-23T02:14:39.834Z,6.29
2022-11-23T02:14:50.080Z,6.29
2022-11-23T02:15:00.310Z,6.29
2022-11-23T02:15:10.547Z,6.26
2022-11-23T02:15:20.786Z,6.29
2022-11-23T02:15:31.150Z,6.28
2022-11-23T02:15:41.407Z,6.29
2022-11-23T02:15:51.652Z,6.29
2022-11-23T02:16:01.873Z,6.29
2022-11-23T02:16:12.103Z,6.29
2022-11-23T02:16:22.341Z,6.29